Time;durP1;ratioP1;P1;durP2;ratioP2;P2;SDS_P1;SDS_P2;PMS_P1;PMS_P2;Temp;Humidity;BMP_temperature;BMP_pressure;BME280_temperature;BME280_humidity;BME280_pressure;Samples;Min_cycle;Max_cycle;Signal;HPM_P1;HPM_P2
2021/09/20 00:01:56;;;;;;;7.70;5.18;;;11.60;99.90;;;;;;4893397;29;20097;-81
2021/09/20 00:04:22;;;;;;;8.30;5.03;;;11.60;99.90;;;;;;4895848;29;20048;-79
2021/09/20 00:06:47;;;;;;;8.05;5.15;;;11.60;99.90;;;;;;4878960;29;20040;-79
2021/09/20 00:09:13;;;;;;;10.43;5.25;;;11.60;99.90;;;;;;4895157;29;20048;-79
2021/09/20 00:11:39;;;;;;;9.43;5.10;;;11.70;99.90;;;;;;4892086;29;20057;-80
2021/09/20 00:14:05;;;;;;;6.82;5.05;;;11.70;99.90;;;;;;4877717;29;20048;-79
2021/09/20 00:16:30;;;;;;;7.18;4.85;;;11.80;99.90;;;;;;4892327;29;20051;-80
2021/09/20 00:18:56;;;;;;;6.47;4.90;;;11.70;99.90;;;;;;4896836;29;20036;-78
2021/09/20 00:21:24;;;;;;;8.85;5.13;;;11.70;99.90;;;;;;4877337;29;20172;-79
2021/09/20 00:23:50;;;;;;;5.95;4.70;;;11.60;99.90;;;;;;4878385;29;20371;-79
2021/09/20 00:26:16;;;;;;;9.43;5.78;;;11.50;99.90;;;;;;4892155;29;20145;-78
2021/09/20 00:28:42;;;;;;;8.05;5.43;;;11.50;99.90;;;;;;4891855;29;20131;-80
2021/09/20 00:31:08;;;;;;;9.15;5.47;;;11.40;99.90;;;;;;4884448;29;20173;-80
2021/09/20 00:33:33;;;;;;;8.43;5.70;;;11.40;99.90;;;;;;4896285;29;20052;-80
2021/09/20 00:35:59;;;;;;;11.18;6.13;;;11.30;99.90;;;;;;4879708;29;20136;-81
2021/09/20 00:38:25;;;;;;;9.48;5.68;;;11.30;99.90;;;;;;4894464;29;20108;-79
2021/09/20 00:40:51;;;;;;;8.48;5.88;;;11.20;99.90;;;;;;4879121;29;20382;-80
2021/09/20 00:43:17;;;;;;;11.85;6.00;;;11.10;99.90;;;;;;4893424;29;20068;-79
2021/09/20 00:45:43;;;;;;;8.65;5.90;;;11.10;99.90;;;;;;4891253;29;20127;-78
2021/09/20 00:48:08;;;;;;;8.55;5.97;;;11.10;99.90;;;;;;4890969;29;20418;-79
2021/09/20 00:50:34;;;;;;;10.80;6.28;;;11.10;99.90;;;;;;4878110;29;20129;-79
2021/09/20 00:53:00;;;;;;;13.30;6.10;;;11.00;99.90;;;;;;4894901;29;20096;-78
2021/09/20 00:55:27;;;;;;;11.40;6.25;;;11.00;99.90;;;;;;4895658;29;20041;-79
2021/09/20 00:57:53;;;;;;;9.57;6.47;;;11.00;99.90;;;;;;4892578;29;20073;-82
2021/09/20 01:00:19;;;;;;;9.07;5.82;;;10.90;99.90;;;;;;4893050;29;20420;-79
2021/09/20 01:02:45;;;;;;;10.52;5.82;;;10.90;99.90;;;;;;4873127;29;20495;-79
2021/09/20 01:05:12;;;;;;;10.20;5.68;;;10.90;99.90;;;;;;4893589;29;20040;-80
2021/09/20 01:07:38;;;;;;;9.55;6.35;;;10.90;99.90;;;;;;4894573;29;20049;-80
2021/09/20 01:10:07;;;;;;;13.23;6.43;;;10.80;99.90;;;;;;4893077;29;20055;-78
2021/09/20 01:12:33;;;;;;;11.90;6.28;;;10.80;99.90;;;;;;4893782;29;20095;-78
2021/09/20 01:15:02;;;;;;;10.40;6.43;;;10.70;99.90;;;;;;4895147;29;20108;-81
2021/09/20 01:17:28;;;;;;;11.07;6.53;;;10.70;99.90;;;;;;4878143;29;20154;-77
2021/09/20 01:19:54;;;;;;;8.40;6.07;;;10.60;99.90;;;;;;4894379;29;20144;-81
2021/09/20 01:22:22;;;;;;;11.55;6.70;;;10.60;99.90;;;;;;4888122;29;20076;-80
2021/09/20 01:24:48;;;;;;;11.43;6.80;;;10.70;99.90;;;;;;4896985;29;20037;-79
2021/09/20 01:27:17;;;;;;;12.93;6.43;;;10.70;99.90;;;;;;4893114;29;20485;-79
2021/09/20 01:29:44;;;;;;;13.27;6.78;;;10.60;99.90;;;;;;4883031;29;20052;-80
2021/09/20 01:32:10;;;;;;;11.40;6.57;;;10.70;99.90;;;;;;4894388;29;20040;-79
2021/09/20 01:34:36;;;;;;;23.83;6.25;;;10.70;99.90;;;;;;4895658;29;20092;-77
2021/09/20 01:37:03;;;;;;;10.18;6.10;;;10.70;99.90;;;;;;4892908;29;20053;-81
2021/09/20 01:39:31;;;;;;;9.77;6.45;;;10.80;99.90;;;;;;4879283;29;20052;-80
2021/09/20 01:41:59;;;;;;;11.38;6.30;;;10.80;99.90;;;;;;4893340;29;20127;-81
2021/09/20 01:44:26;;;;;;;13.63;6.55;;;10.70;99.90;;;;;;4891930;29;20120;-79
2021/09/20 01:46:54;;;;;;;9.38;6.38;;;10.80;99.90;;;;;;4895707;29;20437;-81
2021/09/20 01:49:27;;;;;;;11.35;6.25;;;10.70;99.90;;;;;;4890069;29;20040;-78
2021/09/20 01:51:54;;;;;;;10.65;6.22;;;10.90;99.90;;;;;;4891557;29;20087;-81
2021/09/20 01:54:20;;;;;;;10.07;6.18;;;10.80;99.90;;;;;;4891940;29;20485;-78
2021/09/20 01:56:48;;;;;;;10.40;6.32;;;10.80;99.90;;;;;;4885859;29;20048;-79
2021/09/20 01:59:15;;;;;;;9.40;6.18;;;10.90;99.90;;;;;;4893156;29;20044;-81
2021/09/20 02:01:40;;;;;;;12.30;6.72;;;10.70;99.90;;;;;;4878728;29;20501;-78
2021/09/20 02:04:06;;;;;;;13.25;6.63;;;10.90;99.90;;;;;;4893952;29;20079;-82
2021/09/20 02:06:32;;;;;;;12.60;6.13;;;10.90;99.90;;;;;;4891803;29;20044;-78
2021/09/20 02:08:58;;;;;;;13.10;6.10;;;10.90;99.90;;;;;;4879225;29;20777;-82
2021/09/20 02:11:24;;;;;;;10.20;6.07;;;10.90;99.90;;;;;;4891289;29;20158;-78
2021/09/20 02:13:52;;;;;;;10.93;6.28;;;10.90;99.90;;;;;;4892881;29;20083;-79
2021/09/20 02:16:18;;;;;;;13.70;6.20;;;11.00;99.90;;;;;;4892277;29;20041;-81
2021/09/20 02:18:46;;;;;;;10.80;6.32;;;11.10;99.90;;;;;;4892163;29;20041;-80
2021/09/20 02:21:13;;;;;;;10.57;5.50;;;11.10;99.90;;;;;;4877739;29;20052;-79
2021/09/20 02:23:40;;;;;;;9.65;6.35;;;11.20;99.90;;;;;;4870532;29;20394;-82
2021/09/20 02:26:05;;;;;;;12.05;6.60;;;11.20;99.90;;;;;;4892255;29;20055;-79
2021/09/20 02:28:36;;;;;;;9.68;6.35;;;11.20;99.90;;;;;;4894061;29;20409;-78
2021/09/20 02:31:06;;;;;;;10.65;6.95;;;11.20;99.90;;;;;;4878724;29;20056;-79
2021/09/20 02:33:33;;;;;;;10.60;6.55;;;11.30;99.90;;;;;;4888651;29;20064;-80
2021/09/20 02:36:00;;;;;;;11.50;5.97;;;11.30;99.90;;;;;;4879055;29;20049;-79
2021/09/20 02:38:26;;;;;;;14.27;6.85;;;11.40;99.90;;;;;;4879468;29;20411;-80
2021/09/20 02:40:52;;;;;;;13.50;5.65;;;11.40;99.90;;;;;;4894930;29;20072;-81
2021/09/20 02:43:17;;;;;;;16.30;6.70;;;11.50;99.90;;;;;;4893029;29;20529;-80
2021/09/20 02:45:43;;;;;;;10.50;6.50;;;11.50;99.90;;;;;;4894981;29;20427;-79
2021/09/20 02:48:09;;;;;;;11.68;6.28;;;11.50;99.90;;;;;;4892706;29;20062;-80
2021/09/20 02:50:34;;;;;;;10.63;6.55;;;11.60;99.90;;;;;;4894580;29;20050;-79
2021/09/20 02:53:00;;;;;;;11.25;6.30;;;11.60;99.90;;;;;;4894761;29;20090;-79
2021/09/20 02:55:26;;;;;;;9.45;6.25;;;11.60;99.90;;;;;;4868327;29;20052;-80
2021/09/20 02:57:52;;;;;;;14.02;6.63;;;11.70;99.90;;;;;;4892746;29;20390;-78
2021/09/20 03:00:18;;;;;;;12.07;6.93;;;11.70;99.90;;;;;;4893864;29;20072;-79
2021/09/20 03:02:43;;;;;;;8.57;6.32;;;11.70;99.90;;;;;;4892241;29;20044;-80
2021/09/20 03:05:09;;;;;;;13.65;6.60;;;11.80;99.90;;;;;;4894553;29;20052;-80
2021/09/20 03:07:35;;;;;;;11.40;6.35;;;11.80;99.90;;;;;;4893533;29;20058;-79
2021/09/20 03:10:01;;;;;;;12.20;6.82;;;11.70;99.90;;;;;;4894206;29;20460;-79
2021/09/20 03:12:27;;;;;;;11.32;6.78;;;11.90;99.90;;;;;;4875348;29;20095;-79
2021/09/20 03:14:52;;;;;;;9.63;6.32;;;11.90;99.90;;;;;;4876951;29;20076;-80
2021/09/20 03:17:18;;;;;;;12.27;5.97;;;11.90;99.90;;;;;;4887912;29;20413;-78
2021/09/20 03:23:06;;;;;;;14.57;6.50;;;11.90;99.90;;;;;;4892460;29;20052;-79
2021/09/20 03:25:32;;;;;;;11.52;6.22;;;11.90;99.90;;;;;;4892532;29;20060;-81
2021/09/20 03:28:01;;;;;;;14.02;6.72;;;11.90;99.90;;;;;;4889302;29;20071;-80
2021/09/20 03:30:27;;;;;;;9.60;6.15;;;12.00;99.90;;;;;;4878165;29;20511;-80
2021/09/20 03:32:52;;;;;;;8.05;6.40;;;12.00;99.90;;;;;;4876882;29;20044;-81
2021/09/20 03:35:18;;;;;;;9.93;6.38;;;12.00;99.90;;;;;;4878510;29;20048;-81
2021/09/20 03:37:46;;;;;;;11.25;6.53;;;12.00;99.90;;;;;;4892735;29;20049;-81
2021/09/20 03:40:14;;;;;;;11.85;6.57;;;12.00;99.90;;;;;;4893712;29;20036;-80
2021/09/20 03:42:40;;;;;;;11.68;6.32;;;12.00;99.90;;;;;;4892973;29;20139;-81
2021/09/20 03:45:07;;;;;;;10.65;6.82;;;12.20;99.90;;;;;;4894086;29;20043;-80
2021/09/20 03:47:33;;;;;;;11.00;6.60;;;12.00;99.90;;;;;;4891905;29;21883;-80
2021/09/20 03:49:59;;;;;;;11.82;6.70;;;12.10;99.90;;;;;;4893287;29;20048;-79
2021/09/20 03:52:25;;;;;;;10.98;6.70;;;12.10;99.90;;;;;;4894680;29;20040;-79
2021/09/20 03:54:50;;;;;;;10.50;6.20;;;12.10;99.90;;;;;;4894097;29;20048;-80
2021/09/20 03:57:16;;;;;;;11.25;6.75;;;12.10;99.90;;;;;;4893392;29;20052;-81
2021/09/20 03:59:42;;;;;;;12.52;6.28;;;12.20;99.90;;;;;;4878606;29;20048;-81
2021/09/20 04:02:07;;;;;;;10.23;6.65;;;12.20;99.90;;;;;;4893364;29;20044;-79
2021/09/20 04:04:33;;;;;;;11.85;6.07;;;12.10;99.90;;;;;;4876622;29;20483;-79
2021/09/20 04:07:02;;;;;;;11.35;6.20;;;12.20;99.90;;;;;;4875979;29;20096;-81
2021/09/20 04:09:28;;;;;;;10.77;6.32;;;12.20;99.90;;;;;;4896869;29;20040;-80
2021/09/20 04:11:55;;;;;;;9.80;6.43;;;12.20;99.90;;;;;;4895605;29;20104;-81
2021/09/20 04:14:21;;;;;;;8.63;6.15;;;12.20;99.90;;;;;;4879192;29;20085;-81
2021/09/20 04:16:47;;;;;;;11.68;6.30;;;12.20;99.90;;;;;;4897473;29;20040;-80
2021/09/20 04:19:13;;;;;;;13.90;6.38;;;12.30;99.90;;;;;;4896477;29;20407;-78
2021/09/20 04:21:38;;;;;;;10.02;6.18;;;12.20;99.90;;;;;;4897172;29;20067;-79
2021/09/20 04:24:04;;;;;;;10.00;5.88;;;12.20;99.90;;;;;;4879971;29;20048;-79
2021/09/20 04:26:30;;;;;;;8.80;5.97;;;12.20;99.90;;;;;;4897247;29;20041;-79
2021/09/20 04:28:57;;;;;;;14.55;6.30;;;12.30;99.90;;;;;;4879895;29;20096;-81
2021/09/20 04:31:23;;;;;;;11.23;6.13;;;12.20;99.90;;;;;;4895820;29;20044;-79
2021/09/20 04:33:49;;;;;;;12.20;6.10;;;12.30;99.90;;;;;;4895325;29;20049;-80
2021/09/20 04:36:14;;;;;;;11.95;5.75;;;12.30;99.90;;;;;;4896692;29;20044;-80
2021/09/20 04:38:40;;;;;;;13.40;6.68;;;12.30;99.90;;;;;;4873674;29;20056;-78
2021/09/20 04:41:06;;;;;;;11.32;6.43;;;12.30;99.90;;;;;;4897538;29;20036;-81
2021/09/20 04:43:32;;;;;;;10.55;6.30;;;12.20;99.90;;;;;;4896728;29;21346;-81
2021/09/20 04:45:57;;;;;;;12.73;5.72;;;12.40;99.90;;;;;;4896386;29;20457;-79
2021/09/20 04:48:23;;;;;;;9.80;6.00;;;12.40;99.90;;;;;;4891043;29;20041;-79
2021/09/20 04:50:52;;;;;;;11.00;6.50;;;12.40;99.90;;;;;;4881683;29;20044;-79
2021/09/20 04:53:18;;;;;;;11.18;6.55;;;12.30;99.90;;;;;;4878989;29;20043;-79
2021/09/20 04:55:45;;;;;;;8.93;6.22;;;12.30;99.90;;;;;;4895586;29;20334;-80
2021/09/20 04:58:12;;;;;;;11.35;6.05;;;12.30;99.90;;;;;;4878715;29;20044;-79
2021/09/20 05:00:39;;;;;;;12.10;5.88;;;12.30;99.90;;;;;;4895439;29;20051;-78
2021/09/20 05:03:05;;;;;;;10.45;5.70;;;12.30;99.90;;;;;;4877585;29;20052;-79
2021/09/20 05:05:31;;;;;;;11.10;6.38;;;12.30;99.90;;;;;;4878767;29;20433;-79
2021/09/20 05:07:57;;;;;;;16.02;6.60;;;12.30;99.90;;;;;;4895886;29;20087;-81
2021/09/20 05:10:23;;;;;;;10.02;5.85;;;12.30;99.90;;;;;;4896199;29;20041;-79
2021/09/20 05:12:49;;;;;;;13.13;6.35;;;12.40;99.90;;;;;;4897967;29;20145;-80
2021/09/20 05:15:16;;;;;;;11.20;5.70;;;12.30;99.90;;;;;;4874218;29;20155;-79
2021/09/20 05:17:43;;;;;;;10.07;5.85;;;12.30;99.90;;;;;;4881703;29;20044;-78
2021/09/20 05:20:10;;;;;;;9.85;5.80;;;12.30;99.90;;;;;;4897766;29;20080;-81
2021/09/20 05:22:36;;;;;;;7.68;5.70;;;12.40;99.90;;;;;;4882226;29;20090;-79
2021/09/20 05:25:04;;;;;;;13.55;6.07;;;12.40;99.90;;;;;;4898397;29;20464;-82
2021/09/20 05:27:30;;;;;;;10.00;6.00;;;12.40;99.90;;;;;;4893590;29;20124;-79
2021/09/20 05:29:57;;;;;;;9.48;5.85;;;12.40;99.90;;;;;;4879363;29;20107;-81
2021/09/20 05:32:23;;;;;;;9.88;5.70;;;12.30;99.90;;;;;;4896911;29;20048;-79
2021/09/20 05:34:49;;;;;;;10.68;5.53;;;12.40;99.90;;;;;;4895896;29;20051;-80
2021/09/20 05:37:17;;;;;;;16.58;6.03;;;12.40;99.90;;;;;;4896182;29;20378;-81
2021/09/20 05:39:43;;;;;;;11.73;5.38;;;12.40;99.90;;;;;;4896641;29;20103;-77
2021/09/20 05:42:09;;;;;;;11.77;5.93;;;12.50;99.90;;;;;;4896471;29;20048;-82
2021/09/20 05:44:34;;;;;;;9.20;5.82;;;12.60;99.90;;;;;;4896228;29;20039;-78
2021/09/20 05:47:01;;;;;;;11.43;5.80;;;12.50;99.90;;;;;;4897805;29;20119;-79
2021/09/20 05:49:26;;;;;;;10.57;5.90;;;12.60;99.90;;;;;;4878607;29;20384;-77
2021/09/20 05:51:52;;;;;;;9.20;5.85;;;12.50;99.90;;;;;;4895239;29;20114;-80
2021/09/20 05:54:18;;;;;;;15.50;6.07;;;12.60;99.90;;;;;;4878305;29;20052;-79
2021/09/20 05:56:43;;;;;;;10.52;5.40;;;12.50;99.90;;;;;;4895318;29;20400;-78
2021/09/20 05:59:09;;;;;;;8.18;5.68;;;12.50;99.90;;;;;;4877966;29;20045;-80
2021/09/20 06:01:35;;;;;;;8.18;5.10;;;12.40;99.90;;;;;;4879220;29;20040;-79
2021/09/20 06:04:01;;;;;;;9.32;5.65;;;12.60;99.90;;;;;;4880657;29;20047;-79
2021/09/20 06:06:27;;;;;;;15.98;5.93;;;12.60;99.90;;;;;;4880536;29;20739;-78
2021/09/20 06:08:52;;;;;;;15.52;5.45;;;12.60;99.90;;;;;;4896588;29;20055;-79
2021/09/20 06:11:18;;;;;;;10.15;5.57;;;12.60;99.90;;;;;;4895552;29;20127;-78
2021/09/20 06:13:44;;;;;;;9.45;5.38;;;12.60;99.90;;;;;;4877987;29;20135;-77
2021/09/20 06:16:10;;;;;;;11.93;5.63;;;12.60;99.90;;;;;;4894953;29;20528;-80
2021/09/20 06:18:36;;;;;;;11.30;5.53;;;12.60;99.90;;;;;;4894394;29;20055;-79
2021/09/20 06:21:03;;;;;;;10.32;5.63;;;12.60;99.90;;;;;;4912883;29;20036;-79
2021/09/20 06:23:29;;;;;;;9.48;5.38;;;12.70;99.90;;;;;;4895993;29;20385;-80
2021/09/20 06:25:56;;;;;;;8.95;5.03;;;12.70;99.90;;;;;;4893913;29;20060;-79
2021/09/20 06:28:22;;;;;;;12.75;4.90;;;12.70;99.90;;;;;;4892497;29;20056;-79
2021/09/20 06:30:47;;;;;;;10.23;5.05;;;12.80;99.90;;;;;;4893248;29;20058;-79
2021/09/20 06:33:13;;;;;;;11.32;5.70;;;12.80;99.90;;;;;;4896039;29;20051;-78
2021/09/20 06:35:39;;;;;;;13.02;5.10;;;12.80;99.90;;;;;;4895033;29;20445;-77
2021/09/20 06:38:05;;;;;;;18.85;5.35;;;12.80;99.90;;;;;;4895355;29;20436;-78
2021/09/20 06:40:30;;;;;;;13.68;5.28;;;12.80;99.90;;;;;;4891994;29;20044;-76
2021/09/20 06:42:57;;;;;;;8.65;5.07;;;12.90;99.90;;;;;;4896418;29;20052;-79
2021/09/20 06:45:23;;;;;;;9.23;4.80;;;12.90;99.90;;;;;;4896958;29;20058;-79
2021/09/20 06:47:49;;;;;;;11.38;5.03;;;12.90;99.90;;;;;;4892884;29;20056;-79
2021/09/20 06:50:15;;;;;;;14.98;4.80;;;12.90;99.90;;;;;;4881041;29;20099;-81
2021/09/20 06:52:41;;;;;;;9.27;5.15;;;13.00;99.90;;;;;;4882284;29;20056;-80
2021/09/20 06:55:08;;;;;;;10.35;5.07;;;13.00;99.90;;;;;;4892310;29;20101;-78
2021/09/20 06:57:34;;;;;;;9.65;4.95;;;13.10;99.90;;;;;;4910671;29;20414;-78
2021/09/20 06:59:59;;;;;;;10.02;4.88;;;13.10;99.90;;;;;;4882461;29;20063;-77
2021/09/20 07:02:25;;;;;;;9.63;4.97;;;13.30;99.90;;;;;;4878301;29;20059;-77
2021/09/20 07:04:51;;;;;;;8.45;5.13;;;13.30;99.90;;;;;;4893177;29;20063;-78
2021/09/20 07:07:17;;;;;;;14.45;5.13;;;13.30;99.90;;;;;;4894634;29;20072;-79
2021/09/20 07:09:44;;;;;;;9.60;5.05;;;13.40;99.90;;;;;;4878277;29;20140;-76
2021/09/20 07:12:11;;;;;;;9.93;5.28;;;13.40;99.90;;;;;;4893607;29;20056;-78
2021/09/20 07:14:37;;;;;;;7.18;4.80;;;13.40;99.90;;;;;;4875295;29;20454;-77
2021/09/20 07:17:04;;;;;;;7.85;4.93;;;13.30;99.90;;;;;;4895084;29;20052;-78
2021/09/20 07:19:30;;;;;;;10.32;4.90;;;13.40;99.90;;;;;;4869281;29;20469;-77
2021/09/20 07:21:56;;;;;;;10.80;4.07;;;13.60;99.90;;;;;;4894797;29;20075;-78
2021/09/20 07:24:22;;;;;;;7.78;4.68;;;13.60;99.90;;;;;;4893707;29;20044;-79
2021/09/20 07:26:47;;;;;;;6.57;4.72;;;13.70;99.90;;;;;;4912760;29;20040;-75
2021/09/20 07:29:14;;;;;;;12.68;4.90;;;13.80;99.90;;;;;;4892944;29;20048;-79
2021/09/20 07:31:40;;;;;;;7.82;5.00;;;13.80;99.90;;;;;;4896069;29;20413;-78
2021/09/20 07:34:06;;;;;;;15.05;5.30;;;13.90;99.90;;;;;;4879276;29;20131;-79
2021/09/20 07:36:33;;;;;;;10.77;5.30;;;14.00;99.90;;;;;;4898085;29;20092;-79
2021/09/20 07:38:58;;;;;;;10.70;5.00;;;14.10;99.90;;;;;;4897701;29;20040;-79
2021/09/20 07:41:24;;;;;;;7.63;4.60;;;14.10;99.90;;;;;;4898351;29;20429;-79
2021/09/20 07:43:50;;;;;;;8.52;4.63;;;14.20;99.90;;;;;;4884889;29;20513;-79
2021/09/20 07:46:19;;;;;;;8.55;4.80;;;14.30;99.90;;;;;;4901723;29;20058;-79
2021/09/20 07:48:46;;;;;;;14.73;4.90;;;14.30;99.90;;;;;;4902055;29;20159;-79
2021/09/20 07:51:12;;;;;;;14.25;4.72;;;14.30;99.90;;;;;;4920592;29;20050;-80
2021/09/20 07:53:38;;;;;;;9.57;4.82;;;14.30;99.90;;;;;;4920116;29;20077;-79
2021/09/20 07:56:04;;;;;;;9.75;4.82;;;14.50;99.90;;;;;;4920377;29;20138;-79
2021/09/20 07:58:31;;;;;;;9.65;4.95;;;14.50;99.90;;;;;;4888746;29;20388;-78
2021/09/20 08:00:58;;;;;;;8.90;4.93;;;14.50;99.90;;;;;;4904505;29;20048;-78
2021/09/20 08:03:25;;;;;;;10.45;4.82;;;14.50;99.90;;;;;;4904434;29;20042;-79
2021/09/20 08:05:52;;;;;;;8.63;4.65;;;14.60;99.90;;;;;;4919984;29;20036;-79
2021/09/20 08:08:18;;;;;;;6.93;4.57;;;14.70;99.90;;;;;;4904158;29;20403;-79
2021/09/20 08:10:44;;;;;;;10.35;4.30;;;14.80;99.90;;;;;;4904458;29;20405;-79
2021/09/20 08:13:10;;;;;;;8.27;4.40;;;14.80;99.90;;;;;;4903711;29;20047;-81
2021/09/20 08:15:37;;;;;;;7.82;3.88;;;14.90;99.90;;;;;;4937096;29;20051;-79
2021/09/20 08:18:04;;;;;;;15.00;4.13;;;15.00;99.90;;;;;;4888453;29;20498;-78
2021/09/20 08:20:31;;;;;;;6.80;3.85;;;15.10;99.90;;;;;;4937267;29;20043;-78
2021/09/20 08:22:56;;;;;;;8.98;3.90;;;15.20;99.90;;;;;;4919497;29;20080;-78
2021/09/20 08:25:24;;;;;;;6.10;3.75;;;15.30;99.90;;;;;;4904088;29;20075;-78
2021/09/20 08:27:50;;;;;;;13.38;4.30;;;15.20;99.90;;;;;;4888347;29;20567;-78
2021/09/20 08:30:17;;;;;;;5.63;3.78;;;15.30;99.90;;;;;;4900715;29;20055;-79
2021/09/20 08:32:43;;;;;;;5.43;3.78;;;15.30;99.90;;;;;;4869812;29;20536;-78
2021/09/20 08:35:21;;;;;;;5.35;3.03;;;15.40;99.90;;;;;;4917695;29;20071;-80
2021/09/20 08:37:48;;;;;;;4.85;3.47;;;15.30;99.90;;;;;;4885233;29;20055;-79
2021/09/20 08:40:15;;;;;;;7.95;3.60;;;15.30;99.90;;;;;;4885320;29;20052;-79
2021/09/20 08:42:42;;;;;;;12.00;3.90;;;15.40;99.90;;;;;;4884701;29;20048;-78
2021/09/20 08:45:14;;;;;;;7.45;3.75;;;15.50;99.90;;;;;;4901144;29;20032;-81
2021/09/20 08:47:42;;;;;;;7.32;3.72;;;15.40;99.90;;;;;;4917585;29;20044;-78
2021/09/20 08:50:10;;;;;;;6.18;3.65;;;15.40;99.90;;;;;;4900632;29;20044;-81
2021/09/20 08:52:36;;;;;;;5.55;4.00;;;15.40;99.90;;;;;;4900217;29;20053;-77
2021/09/20 08:55:06;;;;;;;7.90;3.67;;;15.60;99.90;;;;;;4918203;29;20040;-78
2021/09/20 08:57:33;;;;;;;7.40;4.05;;;15.60;99.90;;;;;;4902835;29;20044;-79
2021/09/20 08:59:59;;;;;;;7.78;4.00;;;15.80;99.90;;;;;;4919687;29;20039;-79
2021/09/20 09:02:29;;;;;;;8.27;4.15;;;15.70;99.90;;;;;;4936476;29;20040;-80
2021/09/20 09:05:18;;;;;;;7.30;3.92;;;15.80;99.90;;;;;;4903507;29;20063;-78
2021/09/20 09:07:50;;;;;;;5.22;3.38;;;15.60;99.90;;;;;;4919242;29;20059;-79
2021/09/20 09:10:17;;;;;;;5.63;3.72;;;15.70;99.90;;;;;;4918963;29;20416;-81
2021/09/20 09:12:43;;;;;;;6.85;3.53;;;15.90;99.90;;;;;;4918119;29;20051;-79
2021/09/20 09:15:13;;;;;;;6.82;3.50;;;15.90;99.90;;;;;;4903089;29;20092;-78
2021/09/20 09:17:45;;;;;;;5.60;3.55;;;15.90;99.90;;;;;;4884777;29;20040;-80
2021/09/20 09:20:16;;;;;;;10.82;3.63;;;16.00;99.90;;;;;;4899545;29;20047;-79
2021/09/20 09:22:50;;;;;;;10.55;3.92;;;16.00;99.90;;;;;;4899804;29;20396;-78
2021/09/20 09:25:25;;;;;;;8.38;3.55;;;16.00;99.90;;;;;;4883901;29;20048;-80
2021/09/20 09:27:58;;;;;;;7.85;2.97;;;16.00;99.90;;;;;;4899151;29;20044;-77
2021/09/20 09:30:39;;;;;;;4.90;2.90;;;16.00;99.90;;;;;;4883987;29;20048;-79
2021/09/20 09:33:26;;;;;;;6.35;3.00;;;16.10;99.90;;;;;;4899116;29;20079;-78
2021/09/20 09:35:54;;;;;;;4.60;3.25;;;16.00;99.90;;;;;;4899761;29;20445;-78
2021/09/20 09:38:21;;;;;;;4.65;3.13;;;16.20;99.90;;;;;;4899321;29;20051;-79
2021/09/20 09:40:59;;;;;;;8.98;3.45;;;16.20;99.90;;;;;;4899454;29;20120;-78
2021/09/20 09:43:46;;;;;;;7.50;3.05;;;16.30;99.90;;;;;;4898365;29;20496;-78
2021/09/20 09:46:21;;;;;;;5.40;2.67;;;16.40;99.90;;;;;;4898773;29;20044;-78
2021/09/20 09:48:48;;;;;;;7.30;3.00;;;16.50;99.90;;;;;;4899390;29;20048;-78
2021/09/20 09:51:14;;;;;;;6.95;2.90;;;16.60;99.90;;;;;;4914648;29;20373;-78
2021/09/20 09:53:43;;;;;;;7.95;2.88;;;16.60;99.90;;;;;;4898711;29;20059;-78
2021/09/20 09:56:15;;;;;;;8.98;2.30;;;16.70;99.90;;;;;;4883217;29;20095;-78
2021/09/20 09:59:07;;;;;;;4.13;2.40;;;16.60;99.90;;;;;;4913869;29;20052;-78
2021/09/20 10:01:39;;;;;;;4.53;2.50;;;16.60;99.90;;;;;;4898960;29;20119;-78
2021/09/20 10:04:12;;;;;;;3.63;2.25;;;16.70;99.90;;;;;;4882659;29;20040;-80
2021/09/20 10:06:41;;;;;;;8.10;2.30;;;16.90;99.90;;;;;;4883016;29;20061;-78
2021/09/20 10:09:08;;;;;;;3.03;2.10;;;16.80;99.90;;;;;;4864894;29;20418;-78
2021/09/20 10:11:35;;;;;;;3.78;2.03;;;16.90;99.90;;;;;;4864123;29;20061;-78
2021/09/20 10:14:01;;;;;;;3.30;2.00;;;17.10;99.90;;;;;;4879111;29;20043;-78
2021/09/20 10:16:31;;;;;;;5.18;2.30;;;17.30;99.90;;;;;;4879491;29;20120;-78
2021/09/20 10:18:59;;;;;;;6.88;2.10;;;17.00;99.90;;;;;;4879689;29;20045;-78
2021/09/20 10:21:26;;;;;;;3.83;2.30;;;17.20;99.90;;;;;;4879780;29;20454;-78
2021/09/20 10:23:55;;;;;;;4.22;2.00;;;17.40;99.90;;;;;;4879744;29;20044;-78
2021/09/20 10:26:22;;;;;;;4.60;2.10;;;17.50;99.90;;;;;;4879877;29;20059;-78
2021/09/20 10:28:50;;;;;;;4.85;2.30;;;17.70;99.90;;;;;;4878875;29;20047;-78
2021/09/20 10:31:17;;;;;;;3.63;2.03;;;17.80;99.90;;;;;;4864290;29;20447;-78
2021/09/20 10:33:43;;;;;;;4.57;2.20;;;17.80;99.90;;;;;;4864252;29;20449;-78
2021/09/20 10:36:09;;;;;;;3.40;2.22;;;17.80;99.90;;;;;;4882601;29;20044;-78
2021/09/20 10:38:35;;;;;;;3.20;1.90;;;18.00;99.90;;;;;;4882718;29;20075;-78
2021/09/20 10:41:17;;;;;;;7.32;2.40;;;18.10;99.90;;;;;;4898444;29;20040;-78
2021/09/20 10:43:45;;;;;;;4.93;2.20;;;18.20;99.90;;;;;;4882084;29;20756;-79
2021/09/20 10:46:28;;;;;;;4.43;2.10;;;18.30;99.90;;;;;;4898751;29;20499;-79
2021/09/20 10:48:59;;;;;;;12.52;2.25;;;18.40;99.90;;;;;;4882789;29;20102;-79
2021/09/20 10:51:38;;;;;;;8.73;2.33;;;18.30;99.90;;;;;;4898280;29;20088;-79
2021/09/20 10:54:10;;;;;;;7.88;2.47;;;18.30;99.90;;;;;;4897529;29;20416;-79
2021/09/20 10:56:37;;;;;;;4.93;2.75;;;18.30;99.90;;;;;;4879369;29;20119;-79
2021/09/20 10:59:03;;;;;;;5.07;2.72;;;18.10;99.90;;;;;;4879001;29;20044;-79
2021/09/20 11:01:30;;;;;;;4.80;2.50;;;18.00;99.90;;;;;;4879403;29;20096;-79
2021/09/20 11:03:59;;;;;;;7.18;2.88;;;18.00;99.90;;;;;;4863693;29;20082;-79
2021/09/20 11:06:24;;;;;;;6.75;2.67;;;17.80;99.90;;;;;;4879417;29;20532;-79
2021/09/20 11:09:01;;;;;;;2.85;2.17;;;17.80;99.90;;;;;;4879182;29;20056;-79
2021/09/20 11:14:14;;;;;;;5.82;2.33;;;17.80;99.90;;;;;;4878576;29;20067;-79
2021/09/20 11:16:47;;;;;;;6.88;2.10;;;17.70;99.90;;;;;;4889416;29;20044;-79
2021/09/20 11:19:25;;;;;;;5.78;2.20;;;17.80;99.90;;;;;;4897729;29;20174;-79
2021/09/20 11:22:24;;;;;;;4.53;1.90;;;17.80;99.90;;;;;;4882675;29;20059;-79
2021/09/20 11:25:03;;;;;;;6.15;2.10;;;17.80;99.90;;;;;;4897931;29;20047;-79
2021/09/20 11:27:29;;;;;;;3.53;2.13;;;17.90;99.90;;;;;;4896932;29;20051;-79
2021/09/20 11:30:09;;;;;;;3.80;1.83;;;18.10;99.90;;;;;;4882101;29;20039;-79
2021/09/20 11:33:00;;;;;;;17.58;2.50;;;18.20;99.90;;;;;;4897640;29;20559;-79
2021/09/20 11:35:28;;;;;;;3.78;1.63;;;18.30;99.90;;;;;;4897457;29;20048;-79
2021/09/20 11:37:57;;;;;;;4.50;1.48;;;18.60;99.90;;;;;;4882238;29;20092;-79
2021/09/20 11:40:31;;;;;;;8.00;2.33;;;18.90;99.90;;;;;;4897991;29;20044;-79
2021/09/20 11:43:03;;;;;;;4.05;2.05;;;18.80;99.90;;;;;;4897466;29;20432;-79
2021/09/20 11:45:32;;;;;;;4.05;1.75;;;18.80;99.90;;;;;;4897348;29;20479;-79
2021/09/20 11:48:04;;;;;;;2.30;1.60;;;18.80;99.90;;;;;;4914265;29;20489;-79
2021/09/20 11:50:31;;;;;;;3.20;1.67;;;19.10;99.90;;;;;;4896982;29;20066;-79
2021/09/20 11:53:01;;;;;;;2.95;1.65;;;19.20;99.90;;;;;;4897310;29;20044;-79
2021/09/20 11:55:29;;;;;;;5.32;1.58;;;19.20;99.60;;;;;;4881649;29;20048;-79
2021/09/20 11:57:58;;;;;;;4.78;1.40;;;19.40;99.00;;;;;;4896911;29;20055;-79
2021/09/20 12:00:30;;;;;;;4.15;1.65;;;19.50;98.00;;;;;;4881874;29;20330;-79
2021/09/20 12:02:57;;;;;;;7.50;1.60;;;19.70;98.90;;;;;;4881782;29;20051;-79
2021/09/20 12:05:45;;;;;;;2.92;1.67;;;19.70;99.20;;;;;;4897157;29;20072;-79
2021/09/20 12:08:14;;;;;;;3.47;2.13;;;19.70;99.10;;;;;;4881826;29;20103;-79
2021/09/20 12:10:47;;;;;;;3.45;1.70;;;19.70;99.40;;;;;;4897453;29;20064;-79
2021/09/20 12:13:21;;;;;;;4.07;1.60;;;19.90;99.30;;;;;;4880856;29;20483;-79
2021/09/20 12:15:49;;;;;;;2.95;1.73;;;19.80;99.50;;;;;;4897021;29;20066;-79
2021/09/20 12:18:20;;;;;;;2.50;1.58;;;19.70;99.30;;;;;;4897264;29;20139;-79
2021/09/20 12:21:04;;;;;;;6.63;1.55;;;19.80;99.00;;;;;;4881422;29;20495;-79
2021/09/20 12:23:38;;;;;;;2.47;1.30;;;19.80;97.20;;;;;;4897039;29;20040;-79
2021/09/20 12:26:07;;;;;;;5.55;1.48;;;19.50;96.80;;;;;;4897099;29;20052;-79
2021/09/20 12:28:34;;;;;;;3.70;1.40;;;19.10;96.60;;;;;;4896100;29;20123;-79
2021/09/20 12:31:15;;;;;;;2.05;1.38;;;19.10;96.60;;;;;;4917640;29;20113;-79
2021/09/20 12:33:49;;;;;;;2.03;1.25;;;19.60;97.60;;;;;;4884527;29;20123;-79
2021/09/20 12:36:23;;;;;;;;;;;19.90;95.70;;;;;;4900462;29;20499;-79
2021/09/20 12:39:17;;;;;;;6.68;1.63;;;20.20;94.90;;;;;;4900071;29;19962;-79
2021/09/20 12:41:53;;;;;;;2.38;1.27;;;20.40;93.80;;;;;;4900201;29;20036;-79
2021/09/20 12:44:37;;;;;;;2.47;1.20;;;20.10;94.60;;;;;;4899938;29;20370;-79
2021/09/20 12:47:05;;;;;;;3.65;1.25;;;20.20;95.20;;;;;;4884688;29;20484;-79
2021/09/20 12:49:31;;;;;;;5.05;1.33;;;20.00;94.70;;;;;;4900258;29;20135;-80
2021/09/20 12:51:57;;;;;;;4.68;1.30;;;20.00;93.90;;;;;;4900117;29;20472;-79
2021/09/20 12:54:30;;;;;;;1.98;1.05;;;20.00;94.40;;;;;;4899836;29;20131;-79